Time;durP1;ratioP1;P1;durP2;ratioP2;P2;SDS_P1;SDS_P2;PMS_P1;PMS_P2;Temp;Humidity;BMP_temperature;BMP_pressure;BME280_temperature;BME280_humidity;BME280_pressure;Samples;Min_cycle;Max_cycle;Signal;HPM_P1;HPM_P2
2020/12/01 00:00:16;;;;;;;39.92;19.50;;;;;;;-1.02;80.40;101231.09;1718702;83;21202;-72
2020/12/01 00:02:43;;;;;;;39.48;18.82;;;;;;;-1.07;80.06;101225.36;1712012;83;21202;-72
2020/12/01 00:05:14;;;;;;;35.88;18.92;;;;;;;-1.13;79.92;101223.92;1726635;83;21231;-73
2020/12/01 00:12:19;;;;;;;34.15;18.48;;;;;;;-1.25;79.96;101220.97;1755103;78;21214;-68
2020/12/01 00:14:56;;;;;;;30.40;15.78;;;;;;;-1.29;80.16;101216.53;1773212;80;21122;-66
2020/12/01 00:17:24;;;;;;;32.93;16.17;;;;;;;-1.30;80.28;101213.08;1726607;83;22101;-67
2020/12/01 00:19:51;;;;;;;25.77;13.95;;;;;;;-1.28;80.54;101224.77;1759690;81;21689;-68
2020/12/01 00:22:19;;;;;;;36.00;19.15;;;;;;;-1.28;80.72;101227.35;1759571;81;21182;-69
2020/12/01 00:24:46;;;;;;;34.38;16.75;;;;;;;-1.29;80.65;101229.07;1757839;81;21182;-68
2020/12/01 00:27:15;;;;;;;29.42;16.07;;;;;;;-1.32;80.75;101220.34;1728774;82;21646;-67
2020/12/01 00:29:43;;;;;;;34.58;17.57;;;;;;;-1.31;81.14;101232.44;1728975;83;21403;-68
2020/12/01 00:32:11;;;;;;;40.15;20.27;;;;;;;-1.31;81.35;101235.90;1724522;82;21226;-69
2020/12/01 00:34:40;;;;;;;39.45;18.15;;;;;;;-1.31;81.30;101239.77;1761371;81;21103;-67
2020/12/01 00:37:08;;;;;;;34.88;17.50;;;;;;;-1.30;81.40;101247.10;1761617;81;21170;-69
2020/12/01 00:39:36;;;;;;;39.50;20.68;;;;;;;-1.31;81.35;101246.66;1761552;81;21665;-69
2020/12/01 00:42:04;;;;;;;34.58;17.75;;;;;;;-1.31;81.13;101238.91;1732331;81;21393;-70
2020/12/01 00:44:31;;;;;;;38.23;20.25;;;;;;;-1.35;81.20;101234.47;1758317;81;21590;-69
2020/12/01 00:46:59;;;;;;;33.80;18.20;;;;;;;-1.36;81.11;101231.41;1758231;81;21226;-69
2020/12/01 00:49:28;;;;;;;36.42;19.75;;;;;;;-1.37;81.15;101232.25;1758200;81;21134;-69
2020/12/01 00:51:56;;;;;;;35.52;19.67;;;;;;;-1.38;81.10;101238.23;1757710;81;21206;-70
2020/12/01 00:54:24;;;;;;;35.25;18.85;;;;;;;-1.39;81.17;101228.33;1757265;81;21582;-69
2020/12/01 00:56:52;;;;;;;37.85;19.30;;;;;;;-1.41;81.11;101227.40;1727512;82;21692;-68
2020/12/01 00:59:20;;;;;;;35.73;19.17;;;;;;;-1.43;81.08;101223.89;1727622;83;21685;-68
2020/12/01 01:01:50;;;;;;;37.88;18.85;;;;;;;-1.42;81.22;101229.53;1727530;83;21214;-70
2020/12/01 01:04:18;;;;;;;35.55;18.30;;;;;;;-1.42;81.25;101220.92;1727500;83;22299;-69
2020/12/01 01:06:49;;;;;;;37.08;18.80;;;;;;;-1.39;81.31;101220.99;1727578;83;21212;-69
2020/12/01 01:09:18;;;;;;;39.33;20.27;;;;;;;-1.40;81.32;101214.95;1727668;82;21218;-70
2020/12/01 01:11:46;;;;;;;32.85;17.25;;;;;;;-1.39;81.43;101215.83;1727568;82;21594;-69
2020/12/01 01:16:14;;;;;;;32.00;17.33;;;;;;;-1.31;81.80;101214.35;1775002;79;21809;-68
2020/12/01 01:18:43;;;;;;;37.13;20.25;;;;;;;-1.33;81.93;101219.89;1748037;82;21140;-68
2020/12/01 01:21:11;;;;;;;37.08;19.23;;;;;;;-1.33;81.81;101221.19;1747772;82;21284;-69
2020/12/01 01:23:39;;;;;;;34.58;19.75;;;;;;;-1.34;81.89;101229.75;1747807;82;21142;-69
2020/12/01 01:26:08;;;;;;;36.65;18.82;;;;;;;-1.33;81.89;101227.64;1723282;82;21191;-68
2020/12/01 01:28:36;;;;;;;35.58;19.82;;;;;;;-1.32;81.87;101229.38;1718205;83;21222;-69
2020/12/01 01:31:04;;;;;;;36.70;19.87;;;;;;;-1.28;82.07;101232.52;1717874;83;21175;-68
2020/12/01 01:33:32;;;;;;;39.08;20.77;;;;;;;-1.29;82.01;101224.29;1718012;83;21270;-69
2020/12/01 01:36:00;;;;;;;30.97;16.35;;;;;;;-1.26;82.17;101232.16;1717707;83;21199;-69
2020/12/01 01:38:28;;;;;;;29.52;14.98;;;;;;;-1.26;82.05;101236.03;1717952;83;21162;-68
2020/12/01 01:40:57;;;;;;;36.73;20.32;;;;;;;-1.26;81.91;101236.03;1718135;83;21725;-69
2020/12/01 01:43:25;;;;;;;33.10;17.05;;;;;;;-1.28;81.86;101237.27;1717994;83;21187;-69
2020/12/01 01:45:53;;;;;;;29.52;15.80;;;;;;;-1.31;81.83;101235.90;1717855;83;21638;-67
2020/12/01 01:48:29;;;;;;;27.77;14.83;;;;;;;-1.29;81.93;101238.50;1717907;83;21194;-69
2020/12/01 01:51:07;;;;;;;38.63;20.30;;;;;;;-1.29;81.98;101248.84;1718087;82;21777;-69
2020/12/01 01:53:37;;;;;;;37.03;20.12;;;;;;;-1.29;82.05;101254.01;1718091;83;21598;-69
2020/12/01 01:56:07;;;;;;;39.08;21.70;;;;;;;-1.32;81.99;101239.30;1718261;83;21162;-69
2020/12/01 01:58:40;;;;;;;38.17;20.82;;;;;;;-1.34;81.96;101233.63;1718251;83;21399;-68
2020/12/01 02:01:15;;;;;;;38.13;18.45;;;;;;;-1.35;81.97;101239.22;1717894;83;21182;-69
2020/12/01 02:03:51;;;;;;;34.70;18.15;;;;;;;-1.36;82.29;101241.74;1718193;83;21187;-68
2020/12/01 02:06:33;;;;;;;36.42;19.40;;;;;;;-1.32;82.51;101235.84;1718107;83;21568;-67
2020/12/01 02:09:05;;;;;;;33.05;17.98;;;;;;;-1.30;82.71;101239.34;1718023;83;21179;-71
2020/12/01 02:11:35;;;;;;;36.40;20.17;;;;;;;-1.26;82.52;101242.48;1718166;83;21566;-70
2020/12/01 02:14:32;;;;;;;37.30;19.57;;;;;;;-1.26;82.43;101238.61;1690192;83;21250;-72
2020/12/01 02:17:18;;;;;;;36.63;19.48;;;;;;;-1.27;82.33;101231.67;1717953;83;21123;-70
2020/12/01 02:20:13;;;;;;;39.67;21.30;;;;;;;-1.19;82.45;101229.33;1844190;76;22623;-69
2020/12/01 02:22:48;;;;;;;37.15;19.73;;;;;;;-1.26;82.35;101228.27;1770640;76;21634;-74
2020/12/01 02:25:18;;;;;;;43.52;20.92;;;;;;;-1.28;82.59;101227.35;1763101;81;21215;-73
2020/12/01 02:27:52;;;;;;;39.33;20.27;;;;;;;-1.28;82.31;101237.69;1766719;81;21208;-73
2020/12/01 02:30:20;;;;;;;42.13;20.68;;;;;;;-1.33;82.30;101231.52;1766654;81;21637;-73
2020/12/01 02:32:48;;;;;;;39.27;21.05;;;;;;;-1.34;82.40;101233.20;1766712;79;21592;-73
2020/12/01 02:35:16;;;;;;;30.80;15.85;;;;;;;-1.37;82.38;101238.72;1766556;79;21200;-73
2020/12/01 02:37:45;;;;;;;35.58;19.25;;;;;;;-1.35;82.53;101243.52;1766609;79;21207;-71
2020/12/01 02:40:17;;;;;;;37.80;19.00;;;;;;;-1.34;82.62;101249.12;1715482;81;21164;-72
2020/12/01 02:42:44;;;;;;;;;;;;;;;-1.32;82.71;101265.14;1769380;81;21688;-73
2020/12/01 02:45:12;;;;;;;36.63;19.77;;;;;;;-1.29;82.75;101257.89;1738681;81;20687;-73
2020/12/01 02:47:43;;;;;;;39.00;21.15;;;;;;;-1.30;82.80;101257.44;1766790;81;21149;-73
2020/12/01 02:50:12;;;;;;;36.98;20.02;;;;;;;-1.31;82.73;101259.58;1766538;81;21357;-74
2020/12/01 02:52:43;;;;;;;39.73;20.60;;;;;;;-1.32;82.71;101269.44;1766605;81;21184;-74
2020/12/01 02:55:11;;;;;;;38.45;20.55;;;;;;;-1.35;82.60;101273.23;1766773;81;21585;-75
2020/12/01 02:57:40;;;;;;;39.67;20.45;;;;;;;-1.35;82.61;101275.39;1766587;81;21184;-77
2020/12/01 03:00:08;;;;;;;31.62;17.52;;;;;;;-1.34;82.75;101272.39;1766592;81;21795;-76
2020/12/01 03:02:37;;;;;;;26.37;14.23;;;;;;;-1.32;82.78;101270.73;1766802;81;22149;-75
2020/12/01 03:05:05;;;;;;;27.15;14.83;;;;;;;-1.33;82.77;101263.83;1766544;81;21210;-77
2020/12/01 03:07:33;;;;;;;31.82;16.42;;;;;;;-1.30;82.99;101269.07;1750057;81;21209;-73
2020/12/01 03:10:01;;;;;;;36.88;19.77;;;;;;;-1.30;82.98;101261.31;1736803;82;21149;-78
2020/12/01 03:12:31;;;;;;;35.88;19.05;;;;;;;-1.28;82.93;101258.37;1737105;82;21153;-79
2020/12/01 03:15:00;;;;;;;24.20;13.68;;;;;;;-1.30;82.77;101260.03;1737025;82;21649;-79
2020/12/01 03:17:28;;;;;;;39.53;20.60;;;;;;;-1.32;82.77;101257.39;1737156;82;21102;-78
2020/12/01 03:19:56;;;;;;;37.25;19.52;;;;;;;-1.31;82.81;101258.29;1736878;82;21117;-79
2020/12/01 03:22:24;;;;;;;33.83;18.50;;;;;;;-1.32;82.80;101255.23;1752877;80;21648;-75
2020/12/01 03:24:53;;;;;;;39.00;20.52;;;;;;;-1.33;82.83;101258.66;1748706;80;21178;-77
2020/12/01 03:27:20;;;;;;;35.83;19.92;;;;;;;-1.34;82.88;101259.05;1748669;82;23598;-77
2020/12/01 03:29:49;;;;;;;37.53;21.05;;;;;;;-1.34;82.77;101263.34;1748447;82;21159;-75
2020/12/01 03:32:18;;;;;;;36.40;19.00;;;;;;;-1.38;82.75;101256.33;1718191;82;21218;-76
2020/12/01 03:34:46;;;;;;;36.45;19.90;;;;;;;-1.37;82.88;101255.52;1718335;82;21577;-76
2020/12/01 03:37:13;;;;;;;37.65;16.82;;;;;;;-1.36;82.98;101262.42;1718051;82;21688;-76
2020/12/01 03:39:42;;;;;;;31.62;17.52;;;;;;;-1.36;83.12;101258.55;1718349;83;21366;-74
2020/12/01 03:42:10;;;;;;;33.50;17.10;;;;;;;-1.36;82.97;101262.42;1726578;82;21144;-75
2020/12/01 03:44:38;;;;;;;30.72;15.68;;;;;;;-1.37;82.95;101268.44;1748095;82;21107;-75
2020/12/01 03:47:07;;;;;;;19.48;11.75;;;;;;;-1.37;83.12;101271.89;1747957;82;21162;-75
2020/12/01 03:49:35;;;;;;;24.95;14.85;;;;;;;-1.37;83.29;101272.31;1747979;82;21609;-73
2020/12/01 03:52:02;;;;;;;21.52;12.93;;;;;;;-1.36;83.31;101270.17;1747981;82;21194;-75
2020/12/01 03:54:31;;;;;;;34.20;18.80;;;;;;;-1.36;83.42;101262.42;1747947;82;21641;-76
2020/12/01 03:56:59;;;;;;;27.25;14.38;;;;;;;-1.34;83.30;101265.93;1747947;82;21170;-75
2020/12/01 03:59:26;;;;;;;31.60;17.30;;;;;;;-1.33;83.28;101270.28;1747866;82;21605;-75
2020/12/01 04:01:55;;;;;;;32.95;17.80;;;;;;;-1.31;83.22;101267.33;1747875;82;21202;-74
2020/12/01 04:04:28;;;;;;;34.50;19.10;;;;;;;-1.33;83.03;101259.95;1748001;82;21648;-72
2020/12/01 04:06:53;;;;;;;33.38;18.52;;;;;;;-1.38;83.08;101257.62;1747438;82;21177;-71
2020/12/01 04:09:23;;;;;;;32.98;17.60;;;;;;;-1.39;83.17;101263.20;1747983;82;21110;-74
2020/12/01 04:11:52;;;;;;;34.15;18.00;;;;;;;-1.35;83.25;101265.06;1748194;81;21213;-70
2020/12/01 04:14:20;;;;;;;31.23;17.15;;;;;;;-1.33;83.13;101259.95;1747944;81;21170;-70
2020/12/01 04:16:48;;;;;;;31.20;17.87;;;;;;;-1.33;83.19;101262.53;1747983;81;21381;-71
2020/12/01 04:19:16;;;;;;;31.37;17.73;;;;;;;-1.31;83.08;101265.62;1747933;81;21681;-71
2020/12/01 04:21:44;;;;;;;33.60;18.12;;;;;;;-1.33;83.00;101267.70;1748036;82;21601;-70
2020/12/01 04:24:12;;;;;;;33.02;18.17;;;;;;;-1.33;82.89;101262.53;1762137;80;21193;-71
2020/12/01 04:26:40;;;;;;;31.33;17.27;;;;;;;-1.34;82.88;101260.77;1766028;81;21612;-73
2020/12/01 04:29:08;;;;;;;19.05;10.03;;;;;;;-1.36;82.86;101259.83;1766009;81;22148;-73
2020/12/01 04:31:36;;;;;;;31.05;17.17;;;;;;;-1.36;82.83;101262.42;1765949;79;21673;-75
2020/12/01 04:34:04;;;;;;;26.60;14.58;;;;;;;-1.33;83.08;101259.95;1765945;79;21197;-70
2020/12/01 04:36:32;;;;;;;24.60;14.03;;;;;;;-1.41;83.02;101245.91;1765992;79;21150;-69
2020/12/01 04:39:00;;;;;;;31.93;16.77;;;;;;;-1.33;82.83;101258.66;1765991;81;21600;-68
2020/12/01 04:41:28;;;;;;;27.17;15.35;;;;;;;-1.33;82.98;101258.66;1765966;81;21253;-68
2020/12/01 04:43:58;;;;;;;28.45;16.48;;;;;;;-1.34;83.03;101255.17;1729570;82;21213;-69
2020/12/01 04:46:27;;;;;;;29.23;16.60;;;;;;;-1.34;83.05;101252.59;1729894;82;21179;-70
2020/12/01 04:49:06;;;;;;;30.75;16.90;;;;;;;-1.35;83.06;101256.44;1703160;82;21609;-70
2020/12/01 04:51:59;;;;;;;33.20;18.35;;;;;;;-1.35;83.12;101260.31;1729772;82;21624;-68
2020/12/01 04:55:23;;;;;;;30.68;17.05;;;;;;;-1.34;83.13;101264.21;1729749;82;22164;-68
2020/12/01 04:58:06;;;;;;;32.67;15.83;;;;;;;-1.34;83.01;101258.17;1729565;82;21166;-69
2020/12/01 05:00:49;;;;;;;32.50;17.73;;;;;;;-1.37;83.06;101255.52;1740399;79;21245;-68
2020/12/01 05:03:53;;;;;;;35.35;17.40;;;;;;;-1.39;83.07;101250.28;1727002;81;21181;-68
2020/12/01 05:09:37;;;;;;;23.38;12.63;;;;;;;-1.42;83.18;101262.26;1735440;82;22152;-70
2020/12/01 05:12:12;;;;;;;21.48;12.73;;;;;;;-1.41;83.29;101264.00;1764425;81;21154;-69
2020/12/01 05:14:54;;;;;;;33.05;17.80;;;;;;;-1.39;83.48;101270.09;1735800;82;21178;-68
2020/12/01 05:17:49;;;;;;;27.07;14.58;;;;;;;-1.37;83.68;101275.77;1735823;82;21158;-70
2020/12/01 05:20:18;;;;;;;23.10;13.83;;;;;;;-1.36;83.85;101279.22;1735246;82;21198;-68
2020/12/01 05:22:59;;;;;;;22.87;13.05;;;;;;;-1.37;83.73;101277.05;1763299;79;22203;-70
2020/12/01 05:25:30;;;;;;;25.10;13.70;;;;;;;-1.37;83.72;101285.23;1750654;81;21670;-71
2020/12/01 05:28:10;;;;;;;26.75;14.83;;;;;;;-1.37;83.80;101284.80;1750919;81;21859;-71
2020/12/01 05:30:40;;;;;;;26.77;15.93;;;;;;;-1.37;83.68;101277.48;1730442;82;21170;-69
2020/12/01 05:33:24;;;;;;;29.32;15.78;;;;;;;-1.37;83.62;101276.19;1730373;81;22150;-70
2020/12/01 05:36:17;;;;;;;31.62;17.12;;;;;;;-1.37;83.54;101283.52;1750210;80;21407;-69
2020/12/01 05:39:06;;;;;;;32.60;16.93;;;;;;;-1.36;83.54;101279.22;1730385;82;21154;-70
2020/12/01 05:41:37;;;;;;;28.32;15.35;;;;;;;-1.36;83.43;101275.34;1730410;82;21625;-69
2020/12/01 05:44:28;;;;;;;25.20;13.65;;;;;;;-1.37;83.35;101275.77;1731997;82;21190;-69
2020/12/01 05:47:07;;;;;;;32.08;16.12;;;;;;;-1.36;83.37;101274.05;1752464;81;21130;-70
2020/12/01 05:49:46;;;;;;;30.68;17.92;;;;;;;-1.37;83.39;101277.05;1752435;81;21618;-69
2020/12/01 05:52:28;;;;;;;32.48;17.57;;;;;;;-1.37;83.36;101282.64;1752372;81;21190;-70
2020/12/01 05:55:11;;;;;;;32.85;16.50;;;;;;;-1.37;83.63;101281.35;1752132;81;21149;-68
2020/12/01 05:57:41;;;;;;;53.20;23.12;;;;;;;-1.34;83.60;101281.44;1752492;81;21166;-71
2020/12/01 06:00:18;;;;;;;47.40;22.77;;;;;;;-1.33;83.66;101280.20;1752516;81;21177;-69
2020/12/01 06:03:15;;;;;;;81.08;31.93;;;;;;;-1.33;83.38;101283.20;1752619;81;21344;-68
2020/12/01 06:05:45;;;;;;;81.92;30.50;;;;;;;-1.35;83.19;101285.73;1752523;81;21166;-67
2020/12/01 06:08:57;;;;;;;65.10;27.82;;;;;;;-1.39;83.37;101281.30;1752649;81;21228;-69
2020/12/01 06:11:47;;;;;;;44.25;22.60;;;;;;;-1.37;83.41;101292.98;1752727;81;21138;-69
2020/12/01 06:14:24;;;;;;;;;;;;;;;-1.37;83.37;101289.11;1755047;81;21170;-68
2020/12/01 06:16:58;;;;;;;37.08;16.85;;;;;;;-1.35;83.50;101294.78;1732064;82;21619;-70
2020/12/01 06:19:38;;;;;;;41.83;19.17;;;;;;;-1.33;83.50;101284.50;1752431;81;21629;-67
2020/12/01 06:22:33;;;;;;;30.55;17.17;;;;;;;-1.31;83.55;101292.75;1750495;81;21646;-70
2020/12/01 06:25:55;;;;;;;37.50;17.57;;;;;;;-1.29;83.70;101288.90;1762263;80;21209;-71
2020/12/01 06:28:59;;;;;;;40.73;15.72;;;;;;;-1.27;83.48;101290.73;1765279;81;21157;-70
2020/12/01 06:31:36;;;;;;;43.73;19.92;;;;;;;-1.22;83.61;101307.67;1721924;81;21378;-70
2020/12/01 06:34:35;;;;;;;28.95;15.68;;;;;;;-1.22;83.59;101298.63;1758768;81;21145;-70
2020/12/01 06:37:39;;;;;;;27.87;14.53;;;;;;;-1.20;83.34;101305.10;1758961;81;21202;-70
2020/12/01 06:40:26;;;;;;;21.60;12.83;;;;;;;-1.18;83.21;101305.61;1901617;73;27689;-71
2020/12/01 06:43:24;;;;;;;27.25;13.28;;;;;;;-1.18;83.16;101304.31;1847896;76;21166;-70
2020/12/01 06:45:57;;;;;;;40.38;19.40;;;;;;;-1.11;82.98;101301.50;1814301;79;21295;-70
2020/12/01 06:48:35;;;;;;;35.40;17.02;;;;;;;-1.09;82.88;101299.84;1813927;79;21068;-71
2020/12/01 06:51:01;;;;;;;38.83;15.25;;;;;;;-1.06;83.04;101308.58;1813960;79;21182;-70
2020/12/01 06:53:33;;;;;;;35.08;15.40;;;;;;;-1.03;82.83;101305.62;1757599;79;21618;-70
2020/12/01 06:56:13;;;;;;;22.37;12.30;;;;;;;-1.01;82.79;101316.86;1814029;79;21185;-71
2020/12/01 06:58:47;;;;;;;23.57;12.15;;;;;;;-0.98;82.61;101321.71;1822246;78;21212;-69
2020/12/01 07:01:26;;;;;;;31.55;16.50;;;;;;;-0.99;82.27;101320.37;1813758;79;21166;-70
2020/12/01 07:04:09;;;;;;;36.23;15.40;;;;;;;-0.96;82.46;101315.30;1827056;78;21123;-69
2020/12/01 07:06:48;;;;;;;58.85;19.70;;;;;;;-0.94;82.24;101309.77;1884394;74;21190;-71
2020/12/01 07:09:31;;;;;;;34.73;19.05;;;;;;;-0.94;81.97;101311.06;1852845;77;21209;-71
2020/12/01 07:12:16;;;;;;;47.93;22.05;;;;;;;-0.94;82.08;101305.46;1852886;77;21119;-72
2020/12/01 07:15:07;;;;;;;44.13;18.15;;;;;;;-0.91;81.79;101307.25;1853038;77;21138;-69
2020/12/01 07:17:44;;;;;;;25.50;12.25;;;;;;;-0.87;81.84;101304.80;1860300;76;21430;-70
2020/12/01 07:20:32;;;;;;;30.27;13.98;;;;;;;-0.82;81.81;101310.52;1876630;76;21130;-69
2020/12/01 07:23:15;;;;;;;27.58;13.20;;;;;;;-0.76;81.65;101308.09;1819551;78;21150;-69
2020/12/01 07:26:18;;;;;;;27.52;13.43;;;;;;;-0.74;80.71;101311.17;1819723;78;21296;-70
2020/12/01 07:28:57;;;;;;;33.58;13.08;;;;;;;-0.73;80.78;101310.78;1819508;78;21229;-71
2020/12/01 07:31:30;;;;;;;23.18;11.63;;;;;;;-0.70;81.07;101314.31;1818868;78;21166;-70
2020/12/01 07:34:06;;;;;;;51.13;16.40;;;;;;;-0.67;80.87;101315.72;1783620;80;21142;-70
2020/12/01 07:36:41;;;;;;;40.48;11.50;;;;;;;-0.60;80.81;101315.86;1764813;81;21173;-70
2020/12/01 07:39:26;;;;;;;37.80;14.70;;;;;;;-0.56;80.71;101312.53;1764529;79;21372;-69
2020/12/01 07:42:01;;;;;;;28.95;12.82;;;;;;;-0.55;80.26;101311.68;1825586;77;21669;-70
2020/12/01 07:44:31;;;;;;;22.85;12.15;;;;;;;-0.52;79.95;101320.84;1852910;77;21154;-71
2020/12/01 07:47:03;;;;;;;;;;;;;;;-0.55;80.01;101320.73;1855682;77;21146;-70
2020/12/01 07:49:33;;;;;;;43.92;18.17;;;;;;;-0.53;79.79;101319.07;1853109;77;20225;-70
2020/12/01 07:52:21;;;;;;;32.05;15.32;;;;;;;-0.52;79.95;101315.66;1852259;77;21360;-69
2020/12/01 07:54:54;;;;;;;20.88;11.08;;;;;;;-0.49;80.00;101315.73;1852475;77;21142;-71
2020/12/01 07:57:22;;;;;;;21.77;11.22;;;;;;;-0.47;80.01;101305.88;1852248;77;21193;-71
2020/12/01 07:59:51;;;;;;;102.05;40.20;;;;;;;-0.43;80.23;101314.20;1852486;77;22214;-69
2020/12/01 08:02:26;;;;;;;114.37;43.98;;;;;;;-0.36;80.35;101317.83;1818932;78;21182;-69
2020/12/01 08:05:12;;;;;;;34.40;14.97;;;;;;;-0.28;79.51;101313.70;1888103;76;22744;-70
2020/12/01 08:07:39;;;;;;;61.00;20.70;;;;;;;-0.27;79.08;101312.89;1859386;77;21624;-73
2020/12/01 08:10:11;;;;;;;26.57;11.88;;;;;;;-0.28;78.93;101308.53;1858901;77;21360;-70
2020/12/01 08:12:45;;;;;;;23.05;11.70;;;;;;;-0.26;78.61;101312.04;1858690;77;21162;-71
2020/12/01 08:15:19;;;;;;;26.02;13.93;;;;;;;-0.22;78.18;101306.11;1858709;77;21139;-70
2020/12/01 08:17:46;;;;;;;19.32;10.40;;;;;;;-0.22;78.20;101308.70;1858991;77;21166;-71
2020/12/01 08:20:23;;;;;;;14.53;9.03;;;;;;;-0.19;78.10;101309.62;1843938;77;21178;-71
2020/12/01 08:23:20;;;;;;;19.80;11.85;;;;;;;-0.20;78.18;101303.57;1822171;78;22283;-69
2020/12/01 08:25:59;;;;;;;23.40;10.48;;;;;;;-0.19;78.40;101301.85;1794663;77;45468;-69
2020/12/01 08:28:30;;;;;;;27.25;13.58;;;;;;;-0.17;78.06;101306.23;1788614;78;21218;-68
2020/12/01 08:31:13;;;;;;;36.88;18.37;;;;;;;-0.15;78.29;101294.63;1792973;79;21180;-70
2020/12/01 08:34:12;;;;;;;26.35;14.20;;;;;;;-0.08;78.07;101306.89;1767290;80;21120;-69
2020/12/01 08:36:51;;;;;;;26.07;12.60;;;;;;;-0.07;77.65;101303.05;1793204;80;21434;-69
2020/12/01 08:39:58;;;;;;;21.82;11.03;;;;;;;-0.01;77.60;101301.02;1792838;80;21195;-70
2020/12/01 08:42:53;;;;;;;18.12;10.28;;;;;;;0.05;77.84;101301.61;1784811;80;21176;-70
2020/12/01 08:45:33;;;;;;;18.57;10.70;;;;;;;0.10;76.63;101299.57;1771316;81;21145;-70
2020/12/01 08:48:05;;;;;;;19.90;10.32;;;;;;;0.18;77.12;101296.77;1771329;81;21177;-70
2020/12/01 08:50:38;;;;;;;;;;;;;;;0.29;77.35;101298.72;1774410;81;22275;-71
2020/12/01 08:53:14;;;;;;;19.85;10.53;;;;;;;0.41;77.12;101299.89;1771151;81;20245;-70
2020/12/01 08:55:59;;;;;;;17.90;10.23;;;;;;;0.52;77.37;101291.47;1771607;81;21165;-70
2020/12/01 08:58:42;;;;;;;18.37;10.00;;;;;;;0.57;75.52;101289.85;1772951;78;21149;-72
2020/12/01 09:01:13;;;;;;;16.37;9.15;;;;;;;0.56;75.64;101285.09;1798800;78;21167;-71
2020/12/01 09:03:58;;;;;;;19.37;10.32;;;;;;;0.60;75.17;101292.53;1804605;78;21367;-72
2020/12/01 09:06:34;;;;;;;12.73;7.55;;;;;;;0.57;75.33;101280.34;1823343;78;21125;-71
2020/12/01 09:09:14;;;;;;;10.82;6.22;;;;;;;0.62;75.29;101278.77;1823553;78;21163;-72
2020/12/01 09:11:48;;;;;;;11.43;6.55;;;;;;;0.66;75.33;101284.00;1823250;78;21209;-71
2020/12/01 09:17:02;;;;;;;12.03;6.97;;;;;;;0.73;74.84;101278.11;1798058;78;21364;-72
2020/12/01 09:22:30;;;;;;;12.70;6.92;;;;;;;0.63;74.25;101277.91;1822785;78;21626;-72
2020/12/01 09:25:23;;;;;;;10.30;6.33;;;;;;;0.56;75.00;101281.20;1822409;78;22202;-72
2020/12/01 09:27:52;;;;;;;10.55;5.83;;;;;;;0.53;75.48;101278.95;1822565;78;22031;-71
2020/12/01 09:30:36;;;;;;;9.60;6.03;;;;;;;0.47;76.01;101270.63;1811169;77;21320;-72
2020/12/01 09:33:05;;;;;;;20.95;8.48;;;;;;;0.55;75.56;101274.28;1821936;78;21190;-72
2020/12/01 09:35:34;;;;;;;23.22;12.00;;;;;;;0.53;76.12;101268.19;1822119;78;21207;-72
2020/12/01 09:38:02;;;;;;;25.08;11.33;;;;;;;0.51;75.80;101264.69;1822260;78;21158;-71
2020/12/01 09:40:33;;;;;;;27.07;9.43;;;;;;;0.49;76.12;101253.83;1846687;77;21150;-71
2020/12/01 09:43:17;;;;;;;24.45;8.78;;;;;;;0.51;76.58;101246.55;1748009;80;22229;-72
2020/12/01 09:45:40;;;;;;;12.30;7.65;;;;;;;0.55;76.08;101249.66;1705207;84;21262;-73
2020/12/01 09:48:15;;;;;;;12.40;6.90;;;;;;;0.54;75.82;101252.21;1720005;83;21181;-71
2020/12/01 09:50:39;;;;;;;15.18;7.62;;;;;;;0.51;76.12;101250.86;1750380;81;21223;-70
2020/12/01 10:36:24;;;;;;;16.57;9.38;;;;;;;0.79;75.41;101230.27;1699029;84;21638;-73
2020/12/01 10:38:52;;;;;;;16.45;9.10;;;;;;;0.74;76.31;101237.09;1749837;82;21162;-72
2020/12/01 10:41:32;;;;;;;13.25;7.55;;;;;;;0.72;76.22;101238.34;1749671;81;21186;-73
2020/12/01 10:44:03;;;;;;;16.25;9.58;;;;;;;0.68;76.72;101227.88;1749093;81;21194;-74
2020/12/01 10:46:31;;;;;;;;;;;;;;;0.61;76.66;101231.62;1754079;81;21634;-74
2020/12/01 10:48:59;;;;;;;14.23;8.08;;;;;;;0.56;77.16;101228.06;1751272;81;21445;-75
2020/12/01 10:51:27;;;;;;;10.30;6.83;;;;;;;0.52;77.13;101218.90;1749962;81;21590;-74
2020/12/01 10:53:55;;;;;;;9.18;6.45;;;;;;;0.46;76.78;101227.83;1721382;83;21195;-73
2020/12/01 10:56:32;;;;;;;12.87;7.73;;;;;;;0.48;77.54;101230.03;1811310;77;22814;-73
2020/12/01 10:59:00;;;;;;;21.10;10.35;;;;;;;0.46;78.10;101235.20;1782408;80;21103;-75
2020/12/01 11:01:33;;;;;;;18.07;10.13;;;;;;;0.49;78.28;101232.67;1781183;80;21388;-73
2020/12/01 11:04:01;;;;;;;14.05;8.55;;;;;;;0.53;78.38;101222.83;1780613;79;21088;-75
2020/12/01 11:06:31;;;;;;;22.40;11.60;;;;;;;0.56;78.85;101220.30;1716556;83;21139;-74
2020/12/01 11:08:59;;;;;;;12.20;7.08;;;;;;;0.53;77.75;101216.34;1716459;83;21203;-76
2020/12/01 11:11:27;;;;;;;12.13;6.25;;;;;;;0.46;77.85;101210.59;1728103;83;21662;-76
2020/12/01 11:13:55;;;;;;;11.00;6.37;;;;;;;0.43;77.90;101222.16;1716581;83;21240;-77
2020/12/01 11:16:23;;;;;;;14.18;8.33;;;;;;;0.38;78.11;101209.53;1728131;82;21174;-75
2020/12/01 11:18:51;;;;;;;11.93;6.85;;;;;;;0.37;78.67;101217.73;1750691;80;21186;-76
2020/12/01 11:21:19;;;;;;;10.35;6.40;;;;;;;0.43;79.25;101224.75;1749639;82;21194;-75
2020/12/01 11:23:51;;;;;;;;;;;;;;;0.47;79.22;101226.58;1752432;81;21168;-76
2020/12/01 11:26:22;;;;;;;11.85;6.40;;;;;;;0.48;79.10;101225.72;1749591;81;21393;-74
2020/12/01 11:28:50;;;;;;;;;;;;;;;0.48;79.59;101212.76;1752286;81;21179;-71
2020/12/01 11:31:19;;;;;;;17.35;11.25;;;;;;;0.50;79.12;101216.69;1748976;81;20312;-73
2020/12/01 11:34:05;;;;;;;14.90;8.88;;;;;;;0.42;79.08;101220.42;1757086;80;21209;-72
2020/12/01 11:36:35;;;;;;;12.55;8.45;;;;;;;0.41;79.36;101213.08;1750804;81;22348;-72
2020/12/01 11:39:05;;;;;;;16.97;11.18;;;;;;;0.35;79.40;101213.36;1750234;81;22375;-72
2020/12/01 11:41:32;;;;;;;12.65;7.55;;;;;;;0.30;79.89;101209.77;1737121;81;21185;-72
2020/12/01 11:44:01;;;;;;;12.60;7.62;;;;;;;0.25;79.34;101208.80;1710587;83;21146;-72
2020/12/01 11:46:29;;;;;;;18.67;8.68;;;;;;;0.18;79.68;101208.68;1691969;84;21725;-71
2020/12/01 11:49:03;;;;;;;43.28;22.70;;;;;;;0.15;79.86;101205.13;1727176;82;21649;-72
2020/12/01 11:51:35;;;;;;;68.72;31.10;;;;;;;0.15;80.15;101218.08;1719092;81;21393;-73
2020/12/01 11:54:05;;;;;;;17.05;9.85;;;;;;;0.14;80.29;101214.62;1701525;84;21177;-73
2020/12/01 11:56:33;;;;;;;12.10;8.50;;;;;;;0.13;80.09;101214.16;1672559;83;25751;-72
2020/12/01 11:59:01;;;;;;;10.58;6.37;;;;;;;0.14;80.55;101216.34;1698638;83;21233;-74
2020/12/01 12:01:29;;;;;;;18.25;8.70;;;;;;;0.15;80.29;101221.55;1687894;85;21211;-75
2020/12/01 12:03:57;;;;;;;15.53;7.83;;;;;;;0.13;80.49;101216.74;1715366;83;21241;-75
2020/12/01 12:06:25;;;;;;;23.18;9.75;;;;;;;0.14;80.62;101212.03;1715228;83;21185;-75
2020/12/01 12:08:53;;;;;;;12.25;6.37;;;;;;;0.13;80.75;101207.67;1714919;83;21185;-74
2020/12/01 12:11:21;;;;;;;25.40;12.28;;;;;;;0.12;80.21;101205.94;1714313;83;21625;-75
2020/12/01 12:13:49;;;;;;;18.98;10.35;;;;;;;0.09;80.31;101201.09;1695416;84;21201;-74
2020/12/01 12:16:18;;;;;;;42.75;21.60;;;;;;;0.06;80.44;101201.91;1693238;83;21386;-76
2020/12/01 12:18:45;;;;;;;17.87;10.35;;;;;;;0.05;80.42;101211.83;1693341;84;21179;-75
2020/12/01 12:21:13;;;;;;;16.57;9.45;;;;;;;-0.03;80.46;101202.98;1697446;84;21634;-75
2020/12/01 12:23:41;;;;;;;20.20;9.80;;;;;;;-0.08;80.72;101204.60;1699762;84;21123;-75
2020/12/01 12:26:09;;;;;;;14.35;9.33;;;;;;;-0.17;80.96;101205.25;1699704;84;21194;-75
2020/12/01 12:28:37;;;;;;;17.17;10.43;;;;;;;-0.17;81.17;101209.56;1699788;84;22218;-75
2020/12/01 12:31:06;;;;;;;18.55;10.85;;;;;;;-0.19;81.30;101208.64;1706913;83;21197;-74
2020/12/01 12:33:35;;;;;;;22.90;12.80;;;;;;;-0.23;81.40;101204.70;1715498;83;21237;-74
2020/12/01 12:36:03;;;;;;;18.67;9.95;;;;;;;-0.23;81.65;101211.17;1712769;82;21150;-74
2020/12/01 12:38:30;;;;;;;19.70;10.55;;;;;;;-0.20;81.62;101226.33;1675250;85;21226;-74
2020/12/01 12:40:59;;;;;;;16.48;9.93;;;;;;;-0.20;81.49;101223.73;1701564;83;22154;-76
2020/12/01 12:43:27;;;;;;;33.33;17.23;;;;;;;-0.22;81.85;101215.50;1690701;83;21676;-75